»·PEaware :: N41G KOXR-KVCV

N41G :: KOXR-KVCV

FLIGHT INFORMATION

Flight Status: Arrived
Operator: Privately registered:
United States
More flights under this callsign
Pilot: Alec D. (17934)
Aircraft: BEECH AIRCRAFT BONANZA
(BE35)
More flights by this aircraft type
Origin: KOXR Oxnard
United States
Destination: KVCV Socal Logistics
United States
More flights between these airports :: More routes between these airports
Route: FIM V386 PMD
File this flight plan on PilotEdge
Remarks:
Altitude:
(Current/Filed)
7,000ft
Speed:
(Current/Filed)
160kts
Departed: 13-Dec-19 02:37 PM
Arrived: 13-Dec-19 03:20 PM
Distance/Time
Traveled:
94nm/0:43
Distance/Time
To Go:
Arrived

Flight Plot

Page will automatically refresh every two minutes.

Flight plan parsing failed; only flown route is shown


Map Options




Map Legend


Flown Route
Filed Route
Departure Airport
Arrival Airport
Navaid (VOR, NDB)
Fix

Horizontal Profiles

Position Reports

Time Latitude Longitude Heading Altitude Ground
Speed
13-Dec-19 14:17 34.198458 -119.199509 180 46ft 0kts
13-Dec-19 14:18 34.198458 -119.199509 180 46ft 0kts
13-Dec-19 14:19 34.198458 -119.199509 180 46ft 0kts
13-Dec-19 14:20 34.198458 -119.199509 180 46ft 0kts
13-Dec-19 14:21 34.198453 -119.199509 180 46ft 0kts
13-Dec-19 14:22 34.198445 -119.199509 180 46ft 0kts
13-Dec-19 14:23 34.198437 -119.199509 180 46ft 0kts
13-Dec-19 14:24 34.198430 -119.199510 180 46ft 0kts
13-Dec-19 14:25 34.198424 -119.199510 180 46ft 0kts
13-Dec-19 14:26 34.198417 -119.199510 180 46ft 0kts
13-Dec-19 14:27 34.198410 -119.199510 180 46ft 0kts
13-Dec-19 14:28 34.198403 -119.199510 180 46ft 0kts
13-Dec-19 14:29 34.198396 -119.199510 180 46ft 0kts
13-Dec-19 14:30 34.198360 -119.199505 167 46ft 0kts
13-Dec-19 14:31 34.199599 -119.198520 86 46ft 12kts
13-Dec-19 14:32 34.200013 -119.198121 10 46ft 0kts
13-Dec-19 14:33 34.200027 -119.198118 10 46ft 0kts
13-Dec-19 14:34 34.200033 -119.198117 10 46ft 0kts
13-Dec-19 14:35 34.200731 -119.198349 274 46ft 9kts
13-Dec-19 14:36 34.200404 -119.224437 267 847ft 103kts
13-Dec-19 14:37 34.197412 -119.258519 262 2120ft 99kts
13-Dec-19 14:38 34.193169 -119.291652 272 3302ft 100kts
13-Dec-19 14:39 34.211414 -119.285528 48 4479ft 109kts
13-Dec-19 14:40 34.225661 -119.252339 61 5589ft 116kts
13-Dec-19 14:41 34.238892 -119.215866 62 6637ft 119kts
13-Dec-19 14:42 34.253586 -119.174192 63 7011ft 156kts
13-Dec-19 14:43 34.271204 -119.123574 64 6994ft 167kts
13-Dec-19 14:44 34.289864 -119.071825 63 7005ft 169kts
13-Dec-19 14:45 34.308890 -119.018520 66 7002ft 176kts
13-Dec-19 14:46 34.328469 -118.963145 62 7002ft 177kts
13-Dec-19 14:47 34.348002 -118.907411 65 7020ft 176kts
13-Dec-19 14:48 34.367023 -118.852193 65 7036ft 175kts
13-Dec-19 14:49 34.385250 -118.797512 66 7045ft 173kts
13-Dec-19 14:50 34.403863 -118.742146 65 7042ft 175kts
13-Dec-19 14:51 34.422744 -118.686666 65 7047ft 176kts
13-Dec-19 14:52 34.441247 -118.632024 65 7049ft 173kts
13-Dec-19 14:53 34.459957 -118.576844 65 7049ft 174kts
13-Dec-19 14:54 34.478969 -118.520738 66 7065ft 177kts
13-Dec-19 14:55 34.497917 -118.464494 66 7058ft 177kts
13-Dec-19 14:56 34.516546 -118.408173 66 7053ft 177kts
13-Dec-19 14:57 34.535277 -118.352058 66 7057ft 176kts
13-Dec-19 14:58 34.554265 -118.295587 66 7053ft 178kts
13-Dec-19 14:59 34.573413 -118.238676 66 7039ft 178kts
13-Dec-19 15:00 34.591820 -118.183750 66 7048ft 174kts
13-Dec-19 15:01 34.610652 -118.127543 66 7046ft 177kts
13-Dec-19 15:02 34.629578 -118.070767 66 7046ft 178kts
13-Dec-19 15:03 34.629355 -118.010685 94 7045ft 177kts
13-Dec-19 15:04 34.625975 -117.950099 93 7034ft 177kts
13-Dec-19 15:05 34.623164 -117.890560 93 7031ft 174kts
13-Dec-19 15:06 34.620408 -117.831850 93 7047ft 173kts
13-Dec-19 15:07 34.617532 -117.770835 93 7002ft 179kts
13-Dec-19 15:09 34.611727 -117.649630 93 7010ft 177kts
13-Dec-19 15:10 34.608357 -117.590233 93 7019ft 174kts
13-Dec-19 15:11 34.605435 -117.531979 93 7041ft 172kts
13-Dec-19 15:12 34.602413 -117.471404 93 6920ft 181kts
13-Dec-19 15:13 34.602115 -117.408728 88 6066ft 185kts
13-Dec-19 15:14 34.634256 -117.386270 311 5403ft 170kts
13-Dec-19 15:15 34.614816 -117.413407 141 4358ft 178kts
13-Dec-19 15:16 34.610829 -117.371216 38 3954ft 135kts
13-Dec-19 15:17 34.619802 -117.341946 173 3769ft 115kts
13-Dec-19 15:18 34.601725 -117.365154 228 2948ft 82kts
13-Dec-19 15:19 34.595439 -117.372296 195 2888ft 11kts
13-Dec-19 15:20 34.592052 -117.372941 225 2888ft 12kts
13-Dec-19 15:21 34.590638 -117.372297 38 2888ft 0kts
13-Dec-19 15:22 34.590646 -117.372290 34 2888ft 0kts

Navigation Log

Ident Type
Flight plan parsing failed, navigation log unavailable